Time;durP1;ratioP1;P1;durP2;ratioP2;P2;SDS_P1;SDS_P2;PMS_P1;PMS_P2;Temp;Humidity;BMP_temperature;BMP_pressure;BME280_temperature;BME280_humidity;BME280_pressure;Samples;Min_cycle;Max_cycle;Signal;HPM_P1;HPM_P2
2023/07/28 00:02:13;;;;;;;5.00;1.45;;;;;;;;;;4929060;28;20339;-70
2023/07/28 00:04:39;;;;;;;5.70;1.40;;;;;;;;;;4919502;28;20138;-70
2023/07/28 00:07:05;;;;;;;7.22;2.65;;;;;;;;;;4928254;28;20040;-70
2023/07/28 00:09:32;;;;;;;8.15;2.22;;;;;;;;;;4936170;28;20040;-70
2023/07/28 00:11:58;;;;;;;6.20;1.98;;;;;;;;;;4914649;28;20189;-70
2023/07/28 00:14:25;;;;;;;8.63;1.83;;;;;;;;;;4929842;28;20057;-70
2023/07/28 00:16:52;;;;;;;5.15;1.30;;;;;;;;;;4933150;28;20405;-70
2023/07/28 00:19:19;;;;;;;5.40;1.25;;;;;;;;;;4914630;28;20034;-71
2023/07/28 00:21:45;;;;;;;4.68;1.40;;;;;;;;;;4932481;28;20114;-70
2023/07/28 00:24:11;;;;;;;6.80;1.35;;;;;;;;;;4930455;28;20070;-70
2023/07/28 00:26:37;;;;;;;7.28;1.45;;;;;;;;;;4933517;28;20119;-70
2023/07/28 00:29:06;;;;;;;5.03;1.45;;;;;;;;;;4929282;28;20502;-70
2023/07/28 00:31:32;;;;;;;6.50;1.58;;;;;;;;;;4931510;28;20027;-70
2023/07/28 00:33:58;;;;;;;7.65;1.55;;;;;;;;;;4932877;28;20035;-69
2023/07/28 00:36:24;;;;;;;6.63;1.40;;;;;;;;;;4926705;28;20027;-70
2023/07/28 00:38:50;;;;;;;6.38;1.42;;;;;;;;;;4938895;28;20117;-70
2023/07/28 00:41:17;;;;;;;4.22;1.38;;;;;;;;;;4914719;28;20302;-70
2023/07/28 00:43:43;;;;;;;4.88;1.40;;;;;;;;;;4933326;28;20069;-70
2023/07/28 00:46:10;;;;;;;9.40;1.45;;;;;;;;;;4926829;28;20114;-70
2023/07/28 00:48:36;;;;;;;5.88;1.27;;;;;;;;;;4935340;28;20039;-70
2023/07/28 00:51:02;;;;;;;6.95;1.60;;;;;;;;;;4929510;28;20732;-70
2023/07/28 00:53:29;;;;;;;6.72;1.65;;;;;;;;;;4937510;28;20330;-71
2023/07/28 00:55:56;;;;;;;5.32;1.27;;;;;;;;;;4933279;28;20039;-71
2023/07/28 00:58:22;;;;;;;6.28;1.20;;;;;;;;;;4915726;28;21292;-69
2023/07/28 01:00:48;;;;;;;3.35;1.10;;;;;;;;;;4927669;28;20034;-68
2023/07/28 01:03:18;;;;;;;4.13;1.08;;;;;;;;;;4928325;28;20027;-71
2023/07/28 01:05:49;;;;;;;5.07;1.30;;;;;;;;;;4917586;28;20031;-71
2023/07/28 01:08:30;;;;;;;5.38;1.30;;;;;;;;;;4928253;28;20182;-71
2023/07/28 01:10:56;;;;;;;5.00;1.20;;;;;;;;;;4931207;28;20027;-71
2023/07/28 01:13:23;;;;;;;6.57;1.60;;;;;;;;;;4931118;28;20051;-71
2023/07/28 01:15:49;;;;;;;6.95;1.50;;;;;;;;;;4932889;28;20484;-71
2023/07/28 01:18:15;;;;;;;7.78;1.40;;;;;;;;;;4912577;28;20081;-72
2023/07/28 01:20:41;;;;;;;4.53;1.27;;;;;;;;;;4914513;28;20055;-71
2023/07/28 01:23:08;;;;;;;4.93;1.20;;;;;;;;;;4928340;28;20431;-71
2023/07/28 01:25:44;;;;;;;5.95;1.30;;;;;;;;;;4930059;28;20086;-70
2023/07/28 01:28:12;;;;;;;6.15;1.63;;;;;;;;;;4925275;28;20551;-69
2023/07/28 01:30:39;;;;;;;5.22;1.50;;;;;;;;;;4916322;28;20485;-70
2023/07/28 01:33:08;;;;;;;7.47;1.77;;;;;;;;;;4908614;28;20035;-69
2023/07/28 01:35:37;;;;;;;6.70;1.27;;;;;;;;;;4934909;28;20023;-69
2023/07/28 01:38:03;;;;;;;7.82;1.65;;;;;;;;;;4908703;28;20043;-69
2023/07/28 01:40:29;;;;;;;8.90;1.73;;;;;;;;;;4928204;28;20024;-70
2023/07/28 01:42:55;;;;;;;5.00;1.60;;;;;;;;;;4915268;28;20031;-70
2023/07/28 01:45:21;;;;;;;5.85;1.50;;;;;;;;;;4912585;28;22484;-70
2023/07/28 01:47:48;;;;;;;5.80;1.38;;;;;;;;;;4931483;28;20036;-70
2023/07/28 01:50:14;;;;;;;6.03;1.20;;;;;;;;;;4929654;28;20037;-69
2023/07/28 01:52:40;;;;;;;7.28;1.40;;;;;;;;;;4928410;28;20410;-70
2023/07/28 01:55:06;;;;;;;5.75;1.63;;;;;;;;;;4915542;28;20055;-70
2023/07/28 01:57:35;;;;;;;5.25;1.48;;;;;;;;;;4936502;28;20510;-70
2023/07/28 02:00:03;;;;;;;6.25;1.50;;;;;;;;;;4930976;28;20054;-69
2023/07/28 02:02:29;;;;;;;6.57;1.60;;;;;;;;;;4908663;28;20027;-69
2023/07/28 02:04:55;;;;;;;4.90;1.50;;;;;;;;;;4915567;28;20040;-69
2023/07/28 02:07:21;;;;;;;5.85;1.60;;;;;;;;;;4929418;28;20045;-69
2023/07/28 02:09:48;;;;;;;5.70;1.52;;;;;;;;;;4913206;28;20032;-70
2023/07/28 02:12:14;;;;;;;4.32;1.30;;;;;;;;;;4930669;28;20389;-69
2023/07/28 02:14:40;;;;;;;6.72;1.63;;;;;;;;;;4932186;28;20056;-69
2023/07/28 02:17:06;;;;;;;4.57;1.40;;;;;;;;;;4931822;28;20594;-70
2023/07/28 02:19:32;;;;;;;7.72;1.60;;;;;;;;;;4931948;28;20031;-69
2023/07/28 02:21:58;;;;;;;6.35;1.38;;;;;;;;;;4927612;28;20606;-70
2023/07/28 02:24:24;;;;;;;7.22;1.60;;;;;;;;;;4913341;28;20046;-70
2023/07/28 02:26:51;;;;;;;5.78;1.40;;;;;;;;;;4930052;28;20031;-69
2023/07/28 02:29:17;;;;;;;6.00;1.40;;;;;;;;;;4928232;28;20032;-69
2023/07/28 02:31:43;;;;;;;5.32;1.42;;;;;;;;;;4928915;28;20360;-69
2023/07/28 02:34:09;;;;;;;7.00;1.45;;;;;;;;;;4915655;28;20453;-70
2023/07/28 02:36:36;;;;;;;6.95;1.60;;;;;;;;;;4914467;28;20026;-69
2023/07/28 02:39:02;;;;;;;5.22;1.27;;;;;;;;;;4931850;28;20030;-70
2023/07/28 02:41:28;;;;;;;5.05;1.30;;;;;;;;;;4915617;28;20035;-69
2023/07/28 02:43:54;;;;;;;6.95;1.80;;;;;;;;;;4935492;28;20031;-70
2023/07/28 02:46:21;;;;;;;4.68;1.38;;;;;;;;;;4929781;28;20110;-69
2023/07/28 02:48:47;;;;;;;5.15;1.58;;;;;;;;;;4917857;29;20050;-69
2023/07/28 02:51:13;;;;;;;5.20;1.70;;;;;;;;;;4929385;28;20058;-70
2023/07/28 02:53:39;;;;;;;5.20;1.30;;;;;;;;;;4931755;28;20808;-69
2023/07/28 02:56:05;;;;;;;5.55;1.40;;;;;;;;;;4927432;28;20103;-70
2023/07/28 02:58:32;;;;;;;6.72;1.40;;;;;;;;;;4934219;28;20024;-70
2023/07/28 03:00:58;;;;;;;6.28;1.75;;;;;;;;;;4937003;28;20638;-69
2023/07/28 03:03:24;;;;;;;4.85;1.42;;;;;;;;;;4932116;28;20027;-69
2023/07/28 03:05:53;;;;;;;5.03;1.60;;;;;;;;;;4937803;28;20019;-69
2023/07/28 03:08:19;;;;;;;7.43;1.50;;;;;;;;;;4927585;28;20537;-69
2023/07/28 03:10:46;;;;;;;5.18;1.33;;;;;;;;;;4932177;28;20522;-69
2023/07/28 03:13:12;;;;;;;6.28;1.30;;;;;;;;;;4928025;28;20485;-69
2023/07/28 03:15:38;;;;;;;7.07;1.85;;;;;;;;;;4932820;28;20340;-69
2023/07/28 03:18:04;;;;;;;5.68;1.70;;;;;;;;;;4928875;28;20505;-69
2023/07/28 03:20:31;;;;;;;4.68;1.50;;;;;;;;;;4937566;28;20066;-69
2023/07/28 03:22:57;;;;;;;5.43;1.40;;;;;;;;;;4934368;28;20574;-68
2023/07/28 03:25:23;;;;;;;7.53;2.10;;;;;;;;;;4928550;28;20081;-71
2023/07/28 03:27:49;;;;;;;5.90;1.60;;;;;;;;;;4918870;28;20433;-70
2023/07/28 03:30:15;;;;;;;7.60;1.60;;;;;;;;;;4928110;28;20031;-69
2023/07/28 03:32:42;;;;;;;4.90;1.60;;;;;;;;;;4933084;28;20107;-69
2023/07/28 03:35:08;;;;;;;5.13;1.40;;;;;;;;;;4913803;28;20267;-69
2023/07/28 03:37:35;;;;;;;8.18;1.70;;;;;;;;;;4937039;28;20733;-71
2023/07/28 03:40:01;;;;;;;7.88;1.85;;;;;;;;;;4915612;28;20466;-71
2023/07/28 03:42:27;;;;;;;5.78;1.50;;;;;;;;;;4919093;28;20066;-71
2023/07/28 03:44:54;;;;;;;6.40;1.80;;;;;;;;;;4929131;28;20370;-70
2023/07/28 03:47:20;;;;;;;6.22;1.70;;;;;;;;;;4927568;28;20039;-71
2023/07/28 03:49:46;;;;;;;7.53;1.45;;;;;;;;;;4927214;28;20027;-69
2023/07/28 03:52:12;;;;;;;6.03;1.70;;;;;;;;;;4926409;28;20048;-69
2023/07/28 03:54:38;;;;;;;6.63;1.80;;;;;;;;;;4926961;28;20027;-69
2023/07/28 03:57:05;;;;;;;5.05;1.48;;;;;;;;;;4925708;28;20546;-69
2023/07/28 03:59:31;;;;;;;5.18;1.60;;;;;;;;;;4928597;28;20410;-70
2023/07/28 04:01:57;;;;;;;8.30;1.70;;;;;;;;;;4935518;28;20506;-69
2023/07/28 04:04:23;;;;;;;4.93;1.50;;;;;;;;;;4927941;28;20579;-69
2023/07/28 04:06:50;;;;;;;6.72;1.98;;;;;;;;;;4926712;28;20279;-69
2023/07/28 04:09:17;;;;;;;5.32;1.73;;;;;;;;;;4929576;28;20545;-69
2023/07/28 04:11:43;;;;;;;6.75;1.55;;;;;;;;;;4927565;28;20627;-69
2023/07/28 04:14:10;;;;;;;7.78;1.92;;;;;;;;;;4909436;28;20039;-69
2023/07/28 04:16:36;;;;;;;5.90;1.50;;;;;;;;;;4931613;28;20035;-69
2023/07/28 04:19:03;;;;;;;5.88;1.80;;;;;;;;;;4927492;28;20410;-70
2023/07/28 04:21:29;;;;;;;10.07;1.83;;;;;;;;;;4938083;28;20320;-69
2023/07/28 04:23:55;;;;;;;9.63;2.20;;;;;;;;;;4933108;28;20363;-69
2023/07/28 04:26:21;;;;;;;8.23;1.73;;;;;;;;;;4929395;28;20043;-70
2023/07/28 04:28:47;;;;;;;6.57;1.92;;;;;;;;;;4912689;28;20572;-69
2023/07/28 04:31:13;;;;;;;7.68;1.85;;;;;;;;;;4913115;28;20357;-69
2023/07/28 04:33:43;;;;;;;6.55;1.85;;;;;;;;;;4931832;28;20023;-69
2023/07/28 04:36:09;;;;;;;7.47;2.00;;;;;;;;;;4929024;28;20051;-69
2023/07/28 04:38:35;;;;;;;7.22;2.10;;;;;;;;;;4934596;28;20035;-69
2023/07/28 04:41:02;;;;;;;7.00;2.00;;;;;;;;;;4934326;28;20312;-69
2023/07/28 04:43:29;;;;;;;7.28;1.90;;;;;;;;;;4932978;28;20514;-69
2023/07/28 04:45:55;;;;;;;7.82;1.73;;;;;;;;;;4930709;28;20035;-70
2023/07/28 04:48:21;;;;;;;7.00;2.08;;;;;;;;;;4910318;28;20129;-69
2023/07/28 04:50:47;;;;;;;8.35;2.25;;;;;;;;;;4929299;28;20513;-69
2023/07/28 04:53:13;;;;;;;8.38;2.17;;;;;;;;;;4908550;28;20055;-70
2023/07/28 04:55:39;;;;;;;6.47;1.95;;;;;;;;;;4930607;28;20138;-70
2023/07/28 04:58:05;;;;;;;8.80;2.05;;;;;;;;;;4925050;28;20039;-69
2023/07/28 05:00:31;;;;;;;8.10;1.92;;;;;;;;;;4913730;28;20034;-70
2023/07/28 05:02:58;;;;;;;10.02;2.00;;;;;;;;;;4911068;28;20039;-69
2023/07/28 05:05:24;;;;;;;10.35;2.33;;;;;;;;;;4929673;28;20436;-70
2023/07/28 05:07:50;;;;;;;10.95;2.30;;;;;;;;;;4932352;28;20408;-69
2023/07/28 05:10:16;;;;;;;6.18;1.95;;;;;;;;;;4928910;28;20584;-70
2023/07/28 05:12:42;;;;;;;10.40;2.58;;;;;;;;;;4930125;28;20043;-70
2023/07/28 05:15:10;;;;;;;8.93;2.28;;;;;;;;;;4928867;28;20022;-70
2023/07/28 05:17:37;;;;;;;8.68;2.50;;;;;;;;;;4920343;28;20036;-70
2023/07/28 05:20:03;;;;;;;12.25;2.25;;;;;;;;;;4929851;28;20197;-70
2023/07/28 05:22:29;;;;;;;7.18;1.92;;;;;;;;;;4910495;28;20035;-69
2023/07/28 05:24:55;;;;;;;8.68;1.98;;;;;;;;;;4929498;28;20519;-69
2023/07/28 05:27:21;;;;;;;13.27;2.13;;;;;;;;;;4907661;28;20043;-69
2023/07/28 05:29:47;;;;;;;14.80;2.70;;;;;;;;;;4923263;28;20242;-69
2023/07/28 05:32:14;;;;;;;13.70;2.30;;;;;;;;;;4921864;28;20094;-69
2023/07/28 05:34:43;;;;;;;10.15;2.22;;;;;;;;;;4913504;28;20027;-69
2023/07/28 05:37:09;;;;;;;11.32;2.10;;;;;;;;;;4919260;28;20038;-71
2023/07/28 05:39:35;;;;;;;7.68;1.98;;;;;;;;;;4929653;28;20027;-69
2023/07/28 05:42:01;;;;;;;7.75;1.95;;;;;;;;;;4926278;28;20501;-69
2023/07/28 05:44:28;;;;;;;10.02;2.67;;;;;;;;;;4927145;28;20038;-68
2023/07/28 05:46:54;;;;;;;11.02;2.50;;;;;;;;;;4924803;28;20526;-69
2023/07/28 05:49:21;;;;;;;11.60;2.83;;;;;;;;;;4908032;28;20023;-69
2023/07/28 05:51:47;;;;;;;10.77;2.70;;;;;;;;;;4927142;28;20126;-69
2023/07/28 05:54:14;;;;;;;11.00;2.30;;;;;;;;;;4925857;28;20102;-69
2023/07/28 05:56:41;;;;;;;12.70;2.60;;;;;;;;;;4930270;28;20031;-69
2023/07/28 05:59:07;;;;;;;8.93;2.60;;;;;;;;;;4925338;28;20035;-68
2023/07/28 06:01:33;;;;;;;12.52;2.38;;;;;;;;;;4914166;28;20493;-71
2023/07/28 06:03:59;;;;;;;12.40;2.13;;;;;;;;;;4931841;28;20469;-70
2023/07/28 06:06:29;;;;;;;8.68;2.20;;;;;;;;;;4924843;28;20041;-70
2023/07/28 06:08:55;;;;;;;7.75;1.80;;;;;;;;;;4929148;28;20105;-71
2023/07/28 06:11:21;;;;;;;8.82;2.28;;;;;;;;;;4929884;28;20039;-70
2023/07/28 06:13:47;;;;;;;10.13;2.22;;;;;;;;;;4938432;28;20042;-70
2023/07/28 06:16:17;;;;;;;7.80;2.08;;;;;;;;;;4932625;28;20035;-70
2023/07/28 06:18:43;;;;;;;5.60;1.60;;;;;;;;;;4941745;28;20034;-70
2023/07/28 06:21:09;;;;;;;4.32;1.63;;;;;;;;;;4934169;28;20263;-70
2023/07/28 06:23:35;;;;;;;8.18;1.80;;;;;;;;;;4936590;28;20029;-70
2023/07/28 06:26:01;;;;;;;12.40;2.50;;;;;;;;;;4916053;28;20027;-70
2023/07/28 06:28:27;;;;;;;13.07;4.20;;;;;;;;;;4932241;28;20039;-70
2023/07/28 06:30:55;;;;;;;9.50;3.33;;;;;;;;;;4919784;28;20089;-70
2023/07/28 06:33:21;;;;;;;9.43;2.63;;;;;;;;;;4916895;28;20585;-70
2023/07/28 06:35:47;;;;;;;10.43;2.42;;;;;;;;;;4932300;28;20580;-70
2023/07/28 06:38:13;;;;;;;10.13;2.40;;;;;;;;;;4933340;28;20122;-70
2023/07/28 06:40:40;;;;;;;8.65;2.30;;;;;;;;;;4937794;28;20407;-70
2023/07/28 06:43:07;;;;;;;9.07;1.90;;;;;;;;;;4934488;28;20296;-71
2023/07/28 06:45:33;;;;;;;11.27;2.72;;;;;;;;;;4914830;28;20042;-69
2023/07/28 06:47:59;;;;;;;8.50;2.65;;;;;;;;;;4936292;28;20601;-69
2023/07/28 06:50:26;;;;;;;8.77;2.58;;;;;;;;;;4931603;28;20031;-70
2023/07/28 06:52:52;;;;;;;9.80;2.58;;;;;;;;;;4912244;29;20146;-69
2023/07/28 06:55:21;;;;;;;9.88;2.90;;;;;;;;;;4914879;29;20045;-69
2023/07/28 06:57:49;;;;;;;9.95;2.97;;;;;;;;;;4916091;29;20502;-69
2023/07/28 07:00:15;;;;;;;12.68;2.80;;;;;;;;;;4913946;29;20042;-70
2023/07/28 07:02:42;;;;;;;12.25;2.70;;;;;;;;;;4915414;28;20502;-70
2023/07/28 07:05:08;;;;;;;9.07;2.33;;;;;;;;;;4916119;29;20035;-70
2023/07/28 07:07:34;;;;;;;9.10;2.20;;;;;;;;;;4899440;29;20057;-70
2023/07/28 07:10:00;;;;;;;9.27;2.65;;;;;;;;;;4918192;29;20031;-70
2023/07/28 07:12:27;;;;;;;9.98;2.10;;;;;;;;;;4916516;28;20036;-70
2023/07/28 07:14:53;;;;;;;7.88;1.92;;;;;;;;;;4915300;29;20086;-70
2023/07/28 07:17:19;;;;;;;9.40;2.30;;;;;;;;;;4914669;28;20028;-70
2023/07/28 07:19:45;;;;;;;10.40;2.47;;;;;;;;;;4918487;29;20050;-69
2023/07/28 07:22:11;;;;;;;9.35;2.30;;;;;;;;;;4909558;28;20042;-69
2023/07/28 07:24:37;;;;;;;9.88;2.50;;;;;;;;;;4910181;29;20042;-69
2023/07/28 07:27:04;;;;;;;9.55;2.17;;;;;;;;;;4911247;29;20486;-71
2023/07/28 07:29:30;;;;;;;8.23;1.73;;;;;;;;;;4912692;29;20559;-70
2023/07/28 07:31:56;;;;;;;9.85;2.20;;;;;;;;;;4910754;29;20027;-70
2023/07/28 07:34:23;;;;;;;8.95;2.20;;;;;;;;;;4890795;29;20035;-69
2023/07/28 07:36:50;;;;;;;9.43;2.13;;;;;;;;;;4914586;28;21110;-70
2023/07/28 07:39:16;;;;;;;9.27;2.20;;;;;;;;;;4909408;29;20204;-69
2023/07/28 07:41:42;;;;;;;11.05;2.10;;;;;;;;;;4913872;28;20851;-70
2023/07/28 07:44:08;;;;;;;8.02;2.15;;;;;;;;;;4911758;29;20043;-71
2023/07/28 07:46:34;;;;;;;10.10;2.10;;;;;;;;;;4894641;29;20039;-69
2023/07/28 07:49:00;;;;;;;8.70;2.20;;;;;;;;;;4913824;28;20152;-69
2023/07/28 07:51:27;;;;;;;7.93;2.10;;;;;;;;;;4911597;29;20044;-69
2023/07/28 07:53:53;;;;;;;8.90;2.10;;;;;;;;;;4932774;28;20043;-69
2023/07/28 07:56:20;;;;;;;8.35;2.03;;;;;;;;;;4930797;28;20025;-69
2023/07/28 07:58:46;;;;;;;8.52;2.30;;;;;;;;;;4936074;28;20816;-70
2023/07/28 08:01:12;;;;;;;8.18;2.10;;;;;;;;;;4913638;28;20454;-69
2023/07/28 08:03:38;;;;;;;6.80;1.75;;;;;;;;;;4943729;28;20497;-69
2023/07/28 08:06:04;;;;;;;7.88;2.00;;;;;;;;;;4929100;28;20102;-69
2023/07/28 08:08:30;;;;;;;10.40;2.47;;;;;;;;;;4914412;28;20051;-69
2023/07/28 08:10:57;;;;;;;6.80;1.90;;;;;;;;;;4915776;28;20031;-70
2023/07/28 08:13:23;;;;;;;8.38;1.85;;;;;;;;;;4923246;28;20631;-70
2023/07/28 08:15:49;;;;;;;8.65;1.73;;;;;;;;;;4916666;28;20023;-69
2023/07/28 08:18:15;;;;;;;6.53;1.70;;;;;;;;;;4936829;28;20117;-69
2023/07/28 08:20:42;;;;;;;8.05;2.00;;;;;;;;;;4915113;28;20070;-69
2023/07/28 08:23:08;;;;;;;7.78;1.70;;;;;;;;;;4901759;28;20077;-70
2023/07/28 08:25:34;;;;;;;7.93;1.92;;;;;;;;;;4932587;28;20035;-69
2023/07/28 08:28:01;;;;;;;7.75;1.65;;;;;;;;;;4929474;28;20034;-69
2023/07/28 08:30:27;;;;;;;7.40;1.90;;;;;;;;;;4929511;28;20153;-69
2023/07/28 08:32:53;;;;;;;9.98;1.88;;;;;;;;;;4933996;28;20402;-70
2023/07/28 08:35:19;;;;;;;6.13;1.60;;;;;;;;;;4929885;28;20043;-70
2023/07/28 08:37:45;;;;;;;5.13;1.40;;;;;;;;;;4934018;28;20035;-70
2023/07/28 08:40:12;;;;;;;5.20;1.50;;;;;;;;;;4931362;28;20156;-71
2023/07/28 08:42:39;;;;;;;6.07;1.27;;;;;;;;;;4931317;28;20043;-70
2023/07/28 08:45:07;;;;;;;4.53;1.30;;;;;;;;;;4930496;28;20077;-70
2023/07/28 08:47:34;;;;;;;7.97;1.95;;;;;;;;;;4934512;28;20348;-70
2023/07/28 08:50:01;;;;;;;6.55;1.73;;;;;;;;;;4936014;28;20466;-71
2023/07/28 08:52:27;;;;;;;6.70;1.65;;;;;;;;;;4916315;28;20374;-70
2023/07/28 08:54:53;;;;;;;9.50;2.10;;;;;;;;;;4940664;28;20197;-69
2023/07/28 08:57:20;;;;;;;6.95;1.70;;;;;;;;;;4912283;28;20042;-69
2023/07/28 08:59:50;;;;;;;7.75;1.90;;;;;;;;;;4938188;28;20491;-69
2023/07/28 09:02:17;;;;;;;8.20;1.90;;;;;;;;;;4930286;28;20043;-70
2023/07/28 09:04:44;;;;;;;11.30;2.10;;;;;;;;;;4917332;28;20561;-69
2023/07/28 09:07:10;;;;;;;8.60;2.03;;;;;;;;;;4929295;28;20036;-69
2023/07/28 09:09:36;;;;;;;9.25;2.30;;;;;;;;;;4916136;28;20026;-69
2023/07/28 09:12:06;;;;;;;6.72;1.83;;;;;;;;;;4913073;28;20045;-68
2023/07/28 09:14:35;;;;;;;8.50;1.90;;;;;;;;;;4933648;28;20030;-69
2023/07/28 09:17:12;;;;;;;8.23;1.83;;;;;;;;;;4917539;28;20026;-69
2023/07/28 09:19:52;;;;;;;7.85;1.88;;;;;;;;;;4916183;28;20473;-69
2023/07/28 09:22:19;;;;;;;8.25;1.95;;;;;;;;;;4909394;28;20095;-69
2023/07/28 09:24:46;;;;;;;8.25;2.00;;;;;;;;;;4932271;28;20110;-70
2023/07/28 09:27:32;;;;;;;5.88;1.65;;;;;;;;;;4929988;28;20039;-69
2023/07/28 09:29:58;;;;;;;8.80;2.10;;;;;;;;;;4931117;28;20041;-69
2023/07/28 09:32:30;;;;;;;7.57;1.95;;;;;;;;;;4913192;28;20031;-69
2023/07/28 09:35:07;;;;;;;9.20;1.92;;;;;;;;;;4931352;28;20367;-71
2023/07/28 09:37:35;;;;;;;8.40;1.75;;;;;;;;;;4927837;28;20350;-71
2023/07/28 09:40:04;;;;;;;9.50;2.20;;;;;;;;;;4932295;28;20040;-70
2023/07/28 09:42:31;;;;;;;7.22;1.70;;;;;;;;;;4930359;28;20050;-70
2023/07/28 09:44:57;;;;;;;6.32;1.80;;;;;;;;;;4932908;28;20028;-70
2023/07/28 09:47:24;;;;;;;7.85;1.80;;;;;;;;;;4925961;28;21392;-70
2023/07/28 09:49:51;;;;;;;7.35;1.60;;;;;;;;;;4931126;28;20676;-70
2023/07/28 09:52:18;;;;;;;7.03;1.70;;;;;;;;;;4929108;28;20047;-70
2023/07/28 09:54:49;;;;;;;9.75;1.70;;;;;;;;;;4934426;28;20596;-70
2023/07/28 09:57:17;;;;;;;5.70;1.50;;;;;;;;;;4926881;28;20352;-70
2023/07/28 09:59:45;;;;;;;9.43;1.58;;;;;;;;;;4933683;28;20340;-70
2023/07/28 10:02:12;;;;;;;6.20;1.80;;;;;;;;;;4929232;28;20031;-70
2023/07/28 10:04:39;;;;;;;7.28;1.80;;;;;;;;;;4915113;28;20035;-70
2023/07/28 10:07:06;;;;;;;7.82;1.75;;;;;;;;;;4923532;28;20525;-70
2023/07/28 10:09:37;;;;;;;6.68;1.63;;;;;;;;;;4930140;28;20023;-70
2023/07/28 10:12:03;;;;;;;5.57;1.50;;;;;;;;;;4930291;28;20039;-70
2023/07/28 10:14:33;;;;;;;7.15;1.52;;;;;;;;;;4910347;28;20035;-70
2023/07/28 10:16:59;;;;;;;6.88;1.60;;;;;;;;;;4912987;28;20054;-70
2023/07/28 10:19:26;;;;;;;7.53;1.60;;;;;;;;;;4913369;28;20042;-70
2023/07/28 10:22:00;;;;;;;5.47;1.52;;;;;;;;;;4935386;28;20388;-70
2023/07/28 10:24:45;;;;;;;6.75;1.63;;;;;;;;;;4930490;28;20023;-70
2023/07/28 10:27:11;;;;;;;8.80;1.60;;;;;;;;;;4914134;28;20425;-70
2023/07/28 10:29:38;;;;;;;6.13;1.70;;;;;;;;;;4935517;28;20170;-70
2023/07/28 10:32:04;;;;;;;7.72;1.40;;;;;;;;;;4928425;28;20035;-70
2023/07/28 10:34:31;;;;;;;8.68;1.70;;;;;;;;;;4934279;28;20027;-70
2023/07/28 10:37:01;;;;;;;8.50;1.65;;;;;;;;;;4929787;28;20379;-70
2023/07/28 10:39:27;;;;;;;4.68;1.50;;;;;;;;;;4929304;28;20402;-69
2023/07/28 10:41:59;;;;;;;5.63;1.50;;;;;;;;;;4933505;28;20573;-70
2023/07/28 10:44:26;;;;;;;6.55;1.58;;;;;;;;;;4918485;28;20074;-69
2023/07/28 10:46:52;;;;;;;6.18;1.70;;;;;;;;;;4915790;28;20140;-73
2023/07/28 10:49:18;;;;;;;6.32;1.45;;;;;;;;;;4932959;28;20150;-71
2023/07/28 10:51:44;;;;;;;5.43;1.55;;;;;;;;;;4914465;28;20790;-71
2023/07/28 10:54:15;;;;;;;5.57;1.50;;;;;;;;;;4929504;28;20035;-71
2023/07/28 10:56:41;;;;;;;6.20;1.58;;;;;;;;;;4912309;28;20050;-71
2023/07/28 10:59:08;;;;;;;8.93;1.90;;;;;;;;;;4930110;28;20035;-71
2023/07/28 11:01:34;;;;;;;4.88;1.50;;;;;;;;;;4940965;28;20030;-71
2023/07/28 11:04:19;;;;;;;5.93;1.50;;;;;;;;;;4936167;28;20437;-71
2023/07/28 11:06:47;;;;;;;5.50;1.50;;;;;;;;;;4930750;28;20411;-71
2023/07/28 11:09:14;;;;;;;6.82;1.30;;;;;;;;;;4915319;28;20048;-71
2023/07/28 11:11:40;;;;;;;5.47;1.50;;;;;;;;;;4918756;28;20119;-71
2023/07/28 11:14:08;;;;;;;6.20;1.58;;;;;;;;;;4935960;28;20513;-72
2023/07/28 11:16:38;;;;;;;5.90;1.70;;;;;;;;;;4939781;28;20131;-71
2023/07/28 11:19:10;;;;;;;5.93;1.70;;;;;;;;;;4918343;28;20022;-71
2023/07/28 11:21:37;;;;;;;7.68;1.80;;;;;;;;;;4940341;28;20031;-71
2023/07/28 11:24:04;;;;;;;6.25;1.45;;;;;;;;;;4932670;28;20035;-71
2023/07/28 11:26:30;;;;;;;5.38;1.42;;;;;;;;;;4933326;28;20027;-71
2023/07/28 11:28:57;;;;;;;10.18;2.92;;;;;;;;;;4919228;28;20034;-71
2023/07/28 11:31:26;;;;;;;14.13;4.40;;;;;;;;;;4930021;28;20981;-71
2023/07/28 11:33:55;;;;;;;9.88;2.60;;;;;;;;;;4935525;28;20038;-71
2023/07/28 11:36:24;;;;;;;6.55;1.77;;;;;;;;;;4931519;28;20031;-71
2023/07/28 11:38:52;;;;;;;5.85;1.55;;;;;;;;;;4917250;28;20118;-71
2023/07/28 11:41:19;;;;;;;10.50;1.75;;;;;;;;;;4926600;28;20129;-71
2023/07/28 11:43:48;;;;;;;5.45;1.67;;;;;;;;;;4914804;28;20059;-71
2023/07/28 11:46:32;;;;;;;6.05;1.42;;;;;;;;;;4928970;28;20043;-71
2023/07/28 11:49:08;;;;;;;6.03;1.40;;;;;;;;;;4912364;28;20403;-71
2023/07/28 11:51:38;;;;;;;6.72;1.60;;;;;;;;;;4929237;28;20055;-71
2023/07/28 11:54:04;;;;;;;4.60;1.40;;;;;;;;;;4911640;28;20525;-71
2023/07/28 11:56:30;;;;;;;5.28;1.50;;;;;;;;;;4929889;28;20817;-72
2023/07/28 11:58:57;;;;;;;7.85;1.70;;;;;;;;;;4912727;28;20551;-70
2023/07/28 12:01:23;;;;;;;6.40;1.70;;;;;;;;;;4928866;28;20078;-70
2023/07/28 12:03:49;;;;;;;5.65;1.60;;;;;;;;;;4911122;28;20509;-70
2023/07/28 12:06:15;;;;;;;7.20;1.60;;;;;;;;;;4909905;28;20121;-70
2023/07/28 12:08:42;;;;;;;6.93;1.42;;;;;;;;;;4933507;28;20031;-70
2023/07/28 12:11:13;;;;;;;6.45;1.58;;;;;;;;;;4910790;28;20542;-70
2023/07/28 12:13:51;;;;;;;8.63;1.50;;;;;;;;;;4934709;28;20304;-70
2023/07/28 12:16:42;;;;;;;6.80;1.80;;;;;;;;;;4926257;28;20193;-70
2023/07/28 12:19:09;;;;;;;5.70;1.58;;;;;;;;;;4923440;28;20032;-70
2023/07/28 12:21:35;;;;;;;5.50;1.40;;;;;;;;;;4907751;28;20217;-70
2023/07/28 12:24:01;;;;;;;6.63;1.60;;;;;;;;;;4924533;28;20035;-71
2023/07/28 12:26:28;;;;;;;7.55;1.98;;;;;;;;;;4901505;28;20505;-72
2023/07/28 12:28:54;;;;;;;5.93;1.70;;;;;;;;;;4922531;28;20043;-71
2023/07/28 12:31:20;;;;;;;7.30;1.70;;;;;;;;;;4917993;28;20234;-71
2023/07/28 12:33:46;;;;;;;7.32;1.70;;;;;;;;;;4906071;28;20039;-71
2023/07/28 12:36:12;;;;;;;5.78;1.80;;;;;;;;;;4921601;28;20063;-72
2023/07/28 12:38:39;;;;;;;9.25;2.10;;;;;;;;;;4907622;28;21314;-71
2023/07/28 12:41:08;;;;;;;8.23;1.83;;;;;;;;;;4922689;28;20516;-70
2023/07/28 12:43:34;;;;;;;7.82;1.77;;;;;;;;;;4924513;28;20030;-71
2023/07/28 12:46:00;;;;;;;6.68;1.70;;;;;;;;;;4925207;28;20042;-71
2023/07/28 12:48:26;;;;;;;8.02;1.55;;;;;;;;;;4902489;28;20062;-70
2023/07/28 12:50:53;;;;;;;7.03;1.70;;;;;;;;;;4925291;28;20043;-70
2023/07/28 12:53:19;;;;;;;6.32;1.90;;;;;;;;;;4920574;28;20050;-70
2023/07/28 12:55:45;;;;;;;6.85;1.70;;;;;;;;;;4924035;28;20232;-70
2023/07/28 12:58:11;;;;;;;6.47;1.83;;;;;;;;;;4905249;28;20085;-71
2023/07/28 13:00:40;;;;;;;8.75;1.67;;;;;;;;;;4923550;28;20350;-70
2023/07/28 13:03:07;;;;;;;9.15;1.77;;;;;;;;;;4905129;28;20047;-70
2023/07/28 13:05:33;;;;;;;9.73;1.88;;;;;;;;;;4923295;28;20046;-72
2023/07/28 13:07:59;;;;;;;6.50;1.70;;;;;;;;;;4923669;28;20046;-70
2023/07/28 13:10:25;;;;;;;7.30;1.75;;;;;;;;;;4905442;28;20113;-69
2023/07/28 13:12:51;;;;;;;9.27;1.80;;;;;;;;;;4926658;28;20414;-69
2023/07/28 13:15:17;;;;;;;8.35;1.75;;;;;;;;;;4920739;28;20066;-71
2023/07/28 13:17:43;;;;;;;9.35;2.17;;;;;;;;;;4924401;28;20055;-70
2023/07/28 13:20:11;;;;;;;13.07;2.28;;;;;;;;;;4900663;28;20038;-71
2023/07/28 13:22:37;;;;;;;9.43;1.88;;;;;;;;;;4926204;28;20554;-71
2023/07/28 13:25:03;;;;;;;9.25;1.92;;;;;;;;;;4906530;28;20979;-71
2023/07/28 13:27:29;;;;;;;14.13;2.13;;;;;;;;;;4924764;28;20228;-70
2023/07/28 13:29:57;;;;;;;10.27;1.85;;;;;;;;;;4908214;28;20118;-70
2023/07/28 13:32:24;;;;;;;8.98;2.15;;;;;;;;;;4920167;28;20270;-70
2023/07/28 13:34:52;;;;;;;6.43;1.60;;;;;;;;;;4907981;28;20034;-70
2023/07/28 13:37:19;;;;;;;9.98;1.98;;;;;;;;;;4921894;28;20134;-70
2023/07/28 13:39:45;;;;;;;9.48;2.15;;;;;;;;;;4924044;28;20035;-70
2023/07/28 13:42:14;;;;;;;12.52;2.40;;;;;;;;;;4920981;28;20050;-70
2023/07/28 13:44:40;;;;;;;11.75;2.10;;;;;;;;;;4922985;28;20030;-70
2023/07/28 13:47:06;;;;;;;10.55;1.80;;;;;;;;;;4920906;28;20043;-70
2023/07/28 13:49:35;;;;;;;7.25;1.73;;;;;;;;;;4922682;28;20112;-70
2023/07/28 13:52:05;;;;;;;9.57;1.90;;;;;;;;;;4924748;28;20034;-69
2023/07/28 13:54:31;;;;;;;12.75;1.90;;;;;;;;;;4923873;28;20030;-71
2023/07/28 13:56:57;;;;;;;7.53;1.70;;;;;;;;;;4923730;28;20514;-71
2023/07/28 13:59:23;;;;;;;7.57;1.92;;;;;;;;;;4921124;28;21116;-71
2023/07/28 14:01:50;;;;;;;8.20;1.80;;;;;;;;;;4924186;28;20156;-72
2023/07/28 14:04:16;;;;;;;7.78;1.95;;;;;;;;;;4921452;28;20042;-70
2023/07/28 14:06:42;;;;;;;8.23;2.20;;;;;;;;;;4903300;28;20038;-70
2023/07/28 14:09:09;;;;;;;11.68;2.17;;;;;;;;;;4903493;28;20035;-71
2023/07/28 14:11:35;;;;;;;8.38;2.00;;;;;;;;;;4908616;28;20611;-71
2023/07/28 14:14:02;;;;;;;9.35;2.00;;;;;;;;;;4905298;28;20090;-71
2023/07/28 14:16:28;;;;;;;8.15;1.92;;;;;;;;;;4909015;28;20075;-70
2023/07/28 14:18:55;;;;;;;7.80;1.73;;;;;;;;;;4924743;28;20534;-70
2023/07/28 14:21:21;;;;;;;9.68;2.00;;;;;;;;;;4920565;28;20027;-71
2023/07/28 14:23:47;;;;;;;6.80;1.83;;;;;;;;;;4908382;28;20055;-70
2023/07/28 14:26:13;;;;;;;9.45;2.33;;;;;;;;;;4920233;28;20087;-70
2023/07/28 14:28:39;;;;;;;7.57;1.95;;;;;;;;;;4923810;28;20035;-69
2023/07/28 14:31:05;;;;;;;9.70;1.85;;;;;;;;;;4902982;28;20043;-71
2023/07/28 14:33:31;;;;;;;6.25;1.70;;;;;;;;;;4909620;28;20382;-71
2023/07/28 14:35:57;;;;;;;8.95;2.20;;;;;;;;;;4928414;28;20027;-71
2023/07/28 14:38:24;;;;;;;8.82;1.80;;;;;;;;;;4923705;28;20698;-70
2023/07/28 14:40:51;;;;;;;8.30;1.75;;;;;;;;;;4910601;29;20536;-70